KDFI/DFI METAR and TAF weather

Enter ICAO airport designator
Station Type Date Time Source
KDFI METAR 2019/12/13 21:53 UTC NOAA

KDFI 132153Z AUTO 00000KT 10SM SCT110 05/01 A2991 RMK AO2 SLP133 T00500006


Station Type Date Time Source
KDFI Decoded METAR 2019/12/13 21:53 UTC NOAA

DEFIANCE MEMORIAL AIRPORT, OH, United States (KDFI) 41-20N 84-26W 219M
Dec 13, 2019 - 04:53 PM EST / 2019.12.13 2153 UTC
Wind: Calm:0
Visibility: 10 mile(s):0
Sky conditions: partly cloudy
Temperature: 41.0 F (5.0 C)
Dew Point: 33.1 F (0.6 C)
Relative Humidity: 73%
Pressure (altimeter): 29.91 in. Hg (1012 hPa)
ob: KDFI 132153Z AUTO 00000KT 10SM SCT110 05/01 A2991 RMK AO2 SLP133 T00500006
cycle: 22

Station Type Date Time Source
KDFI TAF UTC NOAA

Error!

Example: see airport list